createdAt,value
2018-05-25T00:00:59.696Z,18.40
2018-05-25T00:03:25.930Z,18.50
2018-05-25T00:05:52.152Z,18.50
2018-05-25T00:08:18.338Z,18.50
2018-05-25T00:10:44.562Z,18.50
2018-05-25T00:13:10.836Z,18.50
2018-05-25T00:15:37.075Z,18.50
2018-05-25T00:18:03.348Z,18.40
2018-05-25T00:20:29.558Z,18.40
2018-05-25T00:22:56.536Z,18.00
2018-05-25T00:25:22.797Z,18.00
2018-05-25T00:27:49.054Z,18.10
2018-05-25T00:30:15.975Z,18.10
2018-05-25T00:32:42.243Z,18.10
2018-05-25T00:35:08.431Z,18.10
2018-05-25T00:37:34.667Z,18.10
2018-05-25T00:40:00.915Z,18.00
2018-05-25T00:42:27.904Z,18.00
2018-05-25T00:44:54.118Z,18.00
2018-05-25T00:47:20.328Z,18.00
2018-05-25T00:49:46.620Z,18.00
2018-05-25T00:52:12.844Z,18.00
2018-05-25T00:54:39.083Z,17.90
2018-05-25T00:57:05.313Z,17.90
2018-05-25T00:59:31.526Z,17.90
2018-05-25T01:01:57.801Z,17.90
2018-05-25T01:04:24.065Z,17.80
2018-05-25T01:06:50.275Z,17.80
2018-05-25T01:09:16.531Z,17.80
2018-05-25T01:11:42.745Z,17.70
2018-05-25T01:14:08.924Z,17.70
2018-05-25T01:16:35.912Z,17.60
2018-05-25T01:19:02.106Z,17.50
2018-05-25T01:21:28.304Z,17.60
2018-05-25T01:24:12.994Z,17.50
2018-05-25T01:26:39.287Z,17.50
2018-05-25T01:29:05.486Z,17.40
2018-05-25T01:31:31.706Z,17.40
2018-05-25T01:33:57.928Z,17.30
2018-05-25T01:36:24.191Z,17.30
2018-05-25T01:38:50.424Z,17.30
2018-05-25T01:41:16.619Z,17.30
2018-05-25T01:43:42.891Z,17.30
2018-05-25T01:46:09.078Z,17.30
2018-05-25T01:48:35.355Z,17.30
2018-05-25T01:51:01.583Z,17.30
2018-05-25T01:53:27.844Z,17.30
2018-05-25T01:55:54.169Z,17.30
2018-05-25T01:58:20.414Z,17.30
2018-05-25T02:00:46.648Z,17.20
2018-05-25T02:03:12.843Z,17.20
2018-05-25T02:05:39.795Z,17.10
2018-05-25T02:08:06.025Z,17.00
2018-05-25T02:10:32.952Z,16.80
2018-05-25T02:12:59.913Z,16.90
2018-05-25T02:15:26.148Z,16.80
2018-05-25T02:17:52.374Z,16.80
2018-05-25T02:20:18.596Z,16.70
2018-05-25T02:22:45.572Z,16.20
2018-05-25T02:25:11.793Z,16.10
2018-05-25T02:27:38.009Z,16.20
2018-05-25T02:30:04.230Z,16.30
2018-05-25T02:32:30.433Z,16.40
2018-05-25T02:34:57.378Z,16.50
2018-05-25T02:37:23.611Z,16.40
2018-05-25T02:39:50.549Z,16.60
2018-05-25T02:42:16.777Z,16.60
2018-05-25T02:44:42.989Z,16.60
2018-05-25T02:47:09.233Z,16.60
2018-05-25T02:49:35.467Z,16.60
2018-05-25T02:52:01.660Z,16.60
2018-05-25T02:54:27.921Z,16.70
2018-05-25T02:56:54.890Z,16.60
2018-05-25T02:59:21.118Z,16.60
2018-05-25T03:01:47.335Z,16.70
2018-05-25T03:04:14.320Z,16.60
2018-05-25T03:06:40.549Z,16.60
2018-05-25T03:09:06.780Z,16.60
2018-05-25T03:11:32.973Z,16.60
2018-05-25T03:13:59.208Z,16.60
2018-05-25T03:16:25.424Z,16.60
2018-05-25T03:18:52.352Z,16.50
2018-05-25T03:21:18.570Z,16.50
2018-05-25T03:23:44.815Z,16.40
2018-05-25T03:26:11.816Z,16.40
2018-05-25T03:28:38.005Z,16.40
2018-05-25T03:31:04.975Z,16.40
2018-05-25T03:33:31.174Z,16.40
2018-05-25T03:35:57.415Z,16.40
2018-05-25T03:38:23.630Z,16.30
2018-05-25T03:40:49.848Z,16.30
2018-05-25T03:43:16.837Z,16.20
2018-05-25T03:45:43.079Z,16.10
2018-05-25T03:48:09.382Z,16.20
2018-05-25T03:50:35.631Z,16.20
2018-05-25T03:53:01.903Z,16.20
2018-05-25T03:55:28.887Z,16.20
2018-05-25T03:57:55.143Z,16.10
2018-05-25T04:00:33.760Z,16.20
2018-05-25T04:03:00.824Z,16.10
2018-05-25T04:05:27.070Z,16.10
2018-05-25T04:07:54.033Z,16.10
2018-05-25T04:10:20.272Z,16.10
2018-05-25T04:12:46.527Z,16.10
2018-05-25T04:15:12.760Z,16.10
2018-05-25T04:17:39.017Z,16.00
2018-05-25T04:20:05.311Z,15.90
2018-05-25T04:22:31.560Z,15.90
2018-05-25T04:24:57.834Z,15.90
2018-05-25T04:27:24.098Z,15.90
2018-05-25T04:29:50.355Z,15.90
2018-05-25T04:32:16.673Z,16.00
2018-05-25T04:34:42.911Z,16.00
2018-05-25T04:37:09.212Z,16.00
2018-05-25T04:39:35.440Z,16.00
2018-05-25T04:42:01.705Z,16.00
2018-05-25T04:44:27.950Z,16.00
2018-05-25T04:46:54.987Z,16.10
2018-05-25T04:49:21.978Z,16.10
2018-05-25T04:51:48.258Z,16.10
2018-05-25T04:54:14.543Z,16.10
2018-05-25T04:56:40.832Z,16.10
2018-05-25T04:59:07.885Z,16.10
2018-05-25T05:01:34.893Z,16.10
2018-05-25T05:04:01.163Z,16.10
2018-05-25T05:06:28.206Z,16.10
2018-05-25T05:08:55.233Z,16.10
2018-05-25T05:11:22.264Z,16.10
2018-05-25T05:13:48.557Z,16.10
2018-05-25T05:16:14.795Z,16.10
2018-05-25T05:18:41.012Z,16.00
2018-05-25T05:21:07.258Z,15.90
2018-05-25T05:23:33.504Z,16.00
2018-05-25T05:25:59.754Z,16.10
2018-05-25T05:28:25.977Z,16.10
2018-05-25T05:30:52.238Z,16.20
2018-05-25T05:33:18.498Z,16.20
2018-05-25T05:35:44.766Z,16.30
2018-05-25T05:38:11.005Z,16.30
2018-05-25T05:40:38.029Z,16.30
2018-05-25T05:43:04.264Z,16.30
2018-05-25T05:45:30.524Z,16.40
2018-05-25T05:47:57.514Z,16.40
2018-05-25T05:50:23.802Z,16.40
2018-05-25T05:52:50.776Z,16.40
2018-05-25T05:55:17.026Z,16.40
2018-05-25T05:57:43.284Z,16.50
2018-05-25T06:00:10.329Z,16.50
2018-05-25T06:02:37.317Z,16.60
2018-05-25T06:05:03.606Z,16.50
2018-05-25T06:07:30.643Z,16.50
2018-05-25T06:09:56.893Z,16.50
2018-05-25T06:12:23.911Z,16.60
2018-05-25T06:14:50.121Z,16.60
2018-05-25T06:17:16.394Z,16.60
2018-05-25T06:19:42.658Z,16.50
2018-05-25T06:22:08.917Z,16.60
2018-05-25T06:24:35.185Z,16.60
2018-05-25T06:27:01.443Z,16.60
2018-05-25T06:29:27.706Z,16.70
2018-05-25T06:31:53.969Z,16.70
2018-05-25T06:34:20.199Z,16.70
2018-05-25T06:36:46.472Z,16.80
2018-05-25T06:39:12.736Z,16.80
2018-05-25T06:41:38.958Z,16.90
2018-05-25T06:44:05.230Z,16.90
2018-05-25T06:46:31.555Z,17.00
2018-05-25T06:48:57.824Z,17.00
2018-05-25T06:51:24.084Z,17.10
2018-05-25T06:53:51.097Z,17.20
2018-05-25T06:56:17.352Z,17.10
2018-05-25T06:58:43.627Z,17.30
2018-05-25T07:01:09.890Z,17.30
2018-05-25T07:03:36.138Z,17.30
2018-05-25T07:06:02.414Z,17.30
2018-05-25T07:08:28.634Z,17.40
2018-05-25T07:10:54.887Z,17.50
2018-05-25T07:13:21.129Z,17.50
2018-05-25T07:15:47.370Z,17.50
2018-05-25T07:18:13.577Z,17.60
2018-05-25T07:20:39.807Z,17.60
2018-05-25T07:23:06.056Z,17.70
2018-05-25T07:25:32.306Z,17.70
2018-05-25T07:27:59.289Z,17.90
2018-05-25T07:30:25.529Z,17.80
2018-05-25T07:32:51.780Z,17.90
2018-05-25T07:35:18.007Z,18.00
2018-05-25T07:37:44.236Z,18.00
2018-05-25T07:40:10.494Z,18.10
2018-05-25T07:42:37.475Z,18.20
2018-05-25T07:45:03.737Z,18.20
2018-05-25T07:47:29.975Z,18.20
2018-05-25T07:49:56.234Z,18.20
2018-05-25T07:52:23.256Z,18.40
2018-05-25T07:54:49.556Z,18.40
2018-05-25T07:57:15.770Z,18.50
2018-05-25T07:59:42.080Z,18.60
2018-05-25T08:02:08.323Z,18.70
2018-05-25T08:04:34.609Z,18.70
2018-05-25T08:07:00.868Z,18.70
2018-05-25T08:09:27.059Z,18.70
2018-05-25T08:11:53.307Z,18.80
2018-05-25T08:14:20.296Z,18.90
2018-05-25T08:16:46.537Z,18.90
2018-05-25T08:19:12.759Z,18.90
2018-05-25T08:21:39.035Z,19.00
2018-05-25T08:24:05.282Z,19.10
2018-05-25T08:26:31.485Z,19.10
2018-05-25T08:28:58.479Z,19.20
2018-05-25T08:31:24.729Z,19.20
2018-05-25T08:33:50.980Z,19.30
2018-05-25T08:36:17.233Z,19.30
2018-05-25T08:38:43.594Z,19.40
2018-05-25T08:41:09.790Z,19.40
2018-05-25T08:43:36.035Z,19.40
2018-05-25T08:46:02.331Z,19.50
2018-05-25T08:48:28.583Z,19.50
2018-05-25T08:50:54.868Z,19.60
2018-05-25T08:53:21.547Z,19.70
2018-05-25T08:55:47.630Z,19.80
2018-05-25T08:58:13.846Z,19.80
2018-05-25T09:00:40.132Z,19.80
2018-05-25T09:03:06.377Z,19.90
2018-05-25T09:05:32.654Z,20.00
2018-05-25T09:07:58.895Z,20.00
2018-05-25T09:10:25.958Z,20.20
2018-05-25T09:12:52.210Z,20.20
2018-05-25T09:15:18.445Z,20.30
2018-05-25T09:17:44.670Z,20.40
2018-05-25T09:20:10.913Z,20.40
2018-05-25T09:22:37.133Z,20.50
2018-05-25T09:25:03.399Z,20.60
2018-05-25T09:27:29.610Z,20.60
2018-05-25T09:29:55.869Z,20.60
2018-05-25T09:32:22.839Z,20.80
2018-05-25T09:34:49.048Z,20.80
2018-05-25T09:37:16.085Z,21.10
2018-05-25T09:39:42.260Z,21.10
2018-05-25T09:42:08.497Z,21.20
2018-05-25T09:44:34.723Z,21.30
2018-05-25T09:47:00.974Z,21.30
2018-05-25T09:49:27.198Z,21.40
2018-05-25T09:51:53.408Z,21.50
2018-05-25T09:54:19.623Z,21.40
2018-05-25T09:56:58.149Z,21.50
2018-05-25T09:59:24.436Z,21.60
2018-05-25T10:01:50.678Z,21.70
2018-05-25T10:04:16.906Z,21.80
2018-05-25T10:06:43.822Z,22.00
2018-05-25T10:09:10.097Z,21.90
2018-05-25T10:11:36.316Z,22.10
2018-05-25T10:14:02.540Z,22.10
2018-05-25T10:16:28.752Z,22.10
2018-05-25T10:18:55.708Z,22.30
2018-05-25T10:21:21.919Z,22.30
2018-05-25T10:23:48.881Z,22.50
2018-05-25T10:26:15.110Z,22.40
2018-05-25T10:28:42.123Z,22.60
2018-05-25T10:31:08.328Z,22.60
2018-05-25T10:33:34.599Z,22.70
2018-05-25T10:36:01.530Z,22.70
2018-05-25T10:38:27.770Z,22.70
2018-05-25T10:40:53.992Z,22.70
2018-05-25T10:43:20.243Z,22.60
2018-05-25T10:45:46.486Z,22.60
2018-05-25T10:48:12.705Z,22.70
2018-05-25T10:50:38.950Z,22.80
2018-05-25T10:53:05.187Z,22.80
2018-05-25T10:55:31.475Z,22.80
2018-05-25T10:57:58.469Z,23.20
2018-05-25T11:00:24.696Z,23.10
2018-05-25T11:02:50.898Z,23.20
2018-05-25T11:05:17.113Z,23.20
2018-05-25T11:07:44.078Z,23.20
2018-05-25T11:10:10.287Z,23.20
2018-05-25T11:12:36.519Z,23.20
2018-05-25T11:15:02.744Z,23.30
2018-05-25T11:17:29.012Z,23.50
2018-05-25T11:19:55.238Z,23.50
2018-05-25T11:22:21.504Z,23.40
2018-05-25T11:24:47.772Z,23.40
2018-05-25T11:27:13.996Z,23.30
2018-05-25T11:29:40.185Z,23.40
2018-05-25T11:32:06.473Z,23.50
2018-05-25T11:34:32.732Z,23.50
2018-05-25T11:36:59.084Z,23.70
2018-05-25T11:39:26.050Z,24.10
2018-05-25T11:41:52.298Z,24.10
2018-05-25T11:44:28.863Z,24.30
2018-05-25T11:46:55.081Z,24.60
2018-05-25T11:49:21.302Z,24.50
2018-05-25T11:51:48.304Z,24.30
2018-05-25T11:54:14.530Z,24.20
2018-05-25T11:56:40.761Z,24.30
2018-05-25T11:59:15.651Z,24.20
2018-05-25T12:01:41.912Z,24.20
2018-05-25T12:04:08.180Z,24.10
2018-05-25T12:06:35.166Z,24.30
2018-05-25T12:09:01.390Z,24.20
2018-05-25T12:11:27.629Z,24.30
2018-05-25T12:13:53.881Z,24.30
2018-05-25T12:16:20.094Z,24.40
2018-05-25T12:18:46.340Z,24.40
2018-05-25T12:21:14.675Z,24.40
2018-05-25T12:23:40.981Z,24.50
2018-05-25T12:26:07.987Z,24.70
2018-05-25T12:28:35.095Z,24.70
2018-05-25T12:31:01.302Z,24.70
2018-05-25T12:33:28.244Z,24.70
2018-05-25T12:35:54.532Z,24.70
2018-05-25T12:38:20.739Z,24.70
2018-05-25T12:40:46.942Z,24.60
2018-05-25T12:43:13.174Z,24.70
2018-05-25T12:45:39.382Z,24.70
2018-05-25T12:48:06.344Z,24.80
2018-05-25T12:50:32.643Z,24.80
2018-05-25T12:52:58.843Z,24.90
2018-05-25T12:55:25.395Z,24.90
2018-05-25T12:57:51.787Z,24.90
2018-05-25T13:00:18.011Z,24.90
2018-05-25T13:02:44.317Z,25.00
2018-05-25T13:05:10.576Z,25.00
2018-05-25T13:07:36.806Z,25.00
2018-05-25T13:10:08.549Z,25.00
2018-05-25T13:12:35.187Z,25.00
2018-05-25T13:15:01.429Z,25.00
2018-05-25T13:17:27.668Z,25.10
2018-05-25T13:19:53.912Z,25.10
2018-05-25T13:22:20.167Z,25.10
2018-05-25T13:24:46.438Z,25.10
2018-05-25T13:27:12.678Z,25.10
2018-05-25T13:29:38.941Z,25.20
2018-05-25T13:32:05.203Z,25.10
2018-05-25T13:34:31.468Z,25.10
2018-05-25T13:36:57.654Z,25.10
2018-05-25T13:39:24.620Z,25.10
2018-05-25T13:41:50.884Z,25.10
2018-05-25T13:44:17.098Z,25.20
2018-05-25T13:46:43.345Z,25.30
2018-05-25T13:49:09.594Z,25.30
2018-05-25T13:51:35.885Z,25.40
2018-05-25T13:54:02.156Z,25.40
2018-05-25T13:56:28.429Z,25.50
2018-05-25T13:58:54.686Z,25.50
2018-05-25T14:01:21.016Z,25.40
2018-05-25T14:03:47.238Z,25.40
2018-05-25T14:06:13.469Z,25.40
2018-05-25T14:08:39.680Z,25.50
2018-05-25T14:11:05.924Z,25.40
2018-05-25T14:13:32.153Z,25.50
2018-05-25T14:15:58.347Z,25.50
2018-05-25T14:18:24.585Z,25.50
2018-05-25T14:20:50.863Z,25.50
2018-05-25T14:23:17.142Z,25.60
2018-05-25T14:25:43.375Z,25.60
2018-05-25T14:28:09.648Z,25.70
2018-05-25T14:30:35.863Z,25.60
2018-05-25T14:33:02.060Z,25.70
2018-05-25T14:35:29.367Z,25.60
2018-05-25T14:37:55.583Z,25.60
2018-05-25T14:40:21.809Z,25.50
2018-05-25T14:42:48.084Z,25.50
2018-05-25T14:45:14.294Z,25.50
2018-05-25T14:47:41.242Z,25.50
2018-05-25T14:50:07.434Z,25.50
2018-05-25T14:52:33.697Z,25.60
2018-05-25T14:54:59.922Z,25.60
2018-05-25T14:57:26.881Z,25.70
2018-05-25T14:59:53.125Z,25.70
2018-05-25T15:02:19.605Z,25.60
2018-05-25T15:04:45.814Z,25.60
2018-05-25T15:07:12.088Z,25.60
2018-05-25T15:09:39.109Z,25.60
2018-05-25T15:12:05.279Z,25.60
2018-05-25T15:14:31.465Z,25.60
2018-05-25T15:16:57.669Z,25.60
2018-05-25T15:19:23.904Z,25.70
2018-05-25T15:21:50.160Z,25.70
2018-05-25T15:24:17.112Z,25.70
2018-05-25T15:26:44.095Z,25.70
2018-05-25T15:29:10.345Z,25.60
2018-05-25T15:31:36.581Z,25.70
2018-05-25T15:34:02.779Z,25.70
2018-05-25T15:36:28.975Z,25.70
2018-05-25T15:38:55.252Z,25.70
2018-05-25T15:41:21.495Z,25.70
2018-05-25T15:43:47.738Z,25.70
2018-05-25T15:46:13.951Z,25.70
2018-05-25T15:48:40.189Z,25.60
2018-05-25T15:51:06.412Z,25.70
2018-05-25T15:53:32.626Z,25.60
2018-05-25T15:55:58.880Z,25.70
2018-05-25T15:58:25.914Z,25.60
2018-05-25T16:00:52.133Z,25.60
2018-05-25T16:03:18.386Z,25.60
2018-05-25T16:05:44.662Z,25.60
2018-05-25T16:08:10.961Z,25.60
2018-05-25T16:10:37.269Z,25.60
2018-05-25T16:13:03.599Z,25.60
2018-05-25T16:15:30.572Z,25.50
2018-05-25T16:17:56.849Z,25.60
2018-05-25T16:20:23.070Z,25.60
2018-05-25T16:22:49.312Z,25.60
2018-05-25T16:25:15.524Z,25.50
2018-05-25T16:27:41.795Z,25.50
2018-05-25T16:30:26.214Z,25.40
2018-05-25T16:32:52.499Z,25.40
2018-05-25T16:35:18.706Z,25.40
2018-05-25T16:37:44.944Z,25.40
2018-05-25T16:40:11.934Z,25.40
2018-05-25T16:42:38.194Z,25.40
2018-05-25T16:45:05.198Z,25.40
2018-05-25T16:47:31.402Z,25.30
2018-05-25T16:49:57.628Z,25.40
2018-05-25T16:52:24.617Z,25.40
2018-05-25T16:54:50.843Z,25.30
2018-05-25T16:57:17.028Z,25.30
2018-05-25T16:59:43.240Z,25.30
2018-05-25T17:02:10.262Z,25.20
2018-05-25T17:04:36.498Z,25.20
2018-05-25T17:07:03.626Z,25.30
2018-05-25T17:09:29.806Z,25.20
2018-05-25T17:11:56.764Z,25.10
2018-05-25T17:14:24.323Z,25.10
2018-05-25T17:16:50.765Z,25.10
2018-05-25T17:19:16.961Z,25.00
2018-05-25T17:21:43.931Z,24.90
2018-05-25T17:24:10.150Z,24.90
2018-05-25T17:26:36.398Z,25.00
2018-05-25T17:29:02.809Z,24.90
2018-05-25T17:31:29.055Z,24.90
2018-05-25T17:33:55.264Z,25.00
2018-05-25T17:36:22.286Z,24.90
2018-05-25T17:38:48.597Z,24.90
2018-05-25T17:41:14.820Z,24.90
2018-05-25T17:43:41.041Z,24.90
2018-05-25T17:46:07.285Z,24.90
2018-05-25T17:48:33.527Z,24.90
2018-05-25T17:51:00.564Z,24.80
2018-05-25T17:53:26.846Z,24.70
2018-05-25T17:55:53.092Z,24.70
2018-05-25T17:58:19.311Z,24.70
2018-05-25T18:00:45.555Z,24.60
2018-05-25T18:03:11.886Z,24.60
2018-05-25T18:05:38.144Z,24.60
2018-05-25T18:08:04.362Z,24.60
2018-05-25T18:10:30.566Z,24.60
2018-05-25T18:12:56.792Z,24.60
2018-05-25T18:15:23.201Z,24.60
2018-05-25T18:17:49.385Z,24.60
2018-05-25T18:20:15.614Z,24.60
2018-05-25T18:22:41.956Z,24.60
2018-05-25T18:25:08.916Z,24.50
2018-05-25T18:27:35.177Z,24.50
2018-05-25T18:30:01.404Z,24.50
2018-05-25T18:32:27.729Z,24.50
2018-05-25T18:34:54.036Z,24.50
2018-05-25T18:37:20.250Z,24.50
2018-05-25T18:39:46.483Z,24.50
2018-05-25T18:42:13.462Z,24.60
2018-05-25T18:44:39.719Z,24.50
2018-05-25T18:47:06.020Z,24.70
2018-05-25T18:49:32.213Z,24.60
2018-05-25T18:51:59.177Z,24.50
2018-05-25T18:54:31.537Z,24.40
2018-05-25T18:56:58.578Z,24.30
2018-05-25T18:59:25.588Z,24.30
2018-05-25T19:01:51.811Z,24.30
2018-05-25T19:04:18.044Z,24.30
2018-05-25T19:06:44.298Z,24.30
2018-05-25T19:09:11.258Z,24.30
2018-05-25T19:11:38.254Z,24.30
2018-05-25T19:14:04.509Z,24.30
2018-05-25T19:16:30.743Z,24.30
2018-05-25T19:18:56.989Z,24.20
2018-05-25T19:21:23.964Z,24.10
2018-05-25T19:23:50.227Z,24.10
2018-05-25T19:26:16.438Z,24.10
2018-05-25T19:28:43.748Z,24.00
2018-05-25T19:31:10.007Z,24.00
2018-05-25T19:33:36.201Z,23.80
2018-05-25T19:36:03.195Z,23.70
2018-05-25T19:38:29.422Z,23.70
2018-05-25T19:40:55.632Z,23.70
2018-05-25T19:43:21.859Z,23.70
2018-05-25T19:45:48.059Z,23.70
2018-05-25T19:48:14.315Z,23.70
2018-05-25T19:50:40.555Z,23.60
2018-05-25T19:53:06.810Z,23.60
2018-05-25T19:55:33.048Z,23.50
2018-05-25T19:58:02.409Z,23.30
2018-05-25T20:00:28.673Z,23.20
2018-05-25T20:02:54.890Z,23.10
2018-05-25T20:05:21.117Z,23.10
2018-05-25T20:07:47.361Z,23.00
2018-05-25T20:10:13.622Z,23.10
2018-05-25T20:12:39.821Z,23.10
2018-05-25T20:15:06.042Z,23.10
2018-05-25T20:17:32.318Z,22.80
2018-05-25T20:19:58.543Z,22.60
2018-05-25T20:22:24.762Z,22.60
2018-05-25T20:24:51.016Z,22.40
2018-05-25T20:27:17.281Z,22.50
2018-05-25T20:29:43.549Z,22.50
2018-05-25T20:32:09.798Z,22.50
2018-05-25T20:34:37.164Z,22.20
2018-05-25T20:37:03.371Z,22.10
2018-05-25T20:39:29.613Z,22.00
2018-05-25T20:41:55.819Z,22.00
2018-05-25T20:44:21.995Z,22.10
2018-05-25T20:46:48.214Z,22.20
2018-05-25T20:49:14.411Z,22.20
2018-05-25T20:51:41.727Z,22.20
2018-05-25T20:54:07.943Z,22.10
2018-05-25T20:56:34.180Z,22.10
2018-05-25T20:59:01.405Z,22.10
2018-05-25T21:01:27.661Z,21.90
2018-05-25T21:03:53.860Z,21.80
2018-05-25T21:06:20.056Z,21.70
2018-05-25T21:08:46.368Z,21.60
2018-05-25T21:11:12.690Z,21.40
2018-05-25T21:13:39.674Z,21.20
2018-05-25T21:16:05.934Z,21.20
2018-05-25T21:18:32.173Z,21.40
2018-05-25T21:20:58.454Z,21.30
2018-05-25T21:23:24.652Z,21.00
2018-05-25T21:25:51.687Z,21.20
2018-05-25T21:28:19.969Z,21.10
2018-05-25T21:30:46.931Z,21.40
2018-05-25T21:33:13.189Z,21.30
2018-05-25T21:35:39.429Z,21.30
2018-05-25T21:38:05.700Z,21.40
2018-05-25T21:40:33.750Z,21.30
2018-05-25T21:42:59.962Z,21.30
2018-05-25T21:45:26.266Z,21.10
2018-05-25T21:47:52.501Z,21.10
2018-05-25T21:50:18.714Z,21.00
2018-05-25T21:52:44.989Z,20.50
2018-05-25T21:55:11.258Z,20.60
2018-05-25T21:57:37.487Z,20.80
2018-05-25T22:00:03.765Z,20.80
2018-05-25T22:02:30.017Z,20.80
2018-05-25T22:04:56.225Z,20.80
2018-05-25T22:07:22.475Z,20.80
2018-05-25T22:09:48.741Z,20.90
2018-05-25T22:12:14.960Z,21.00
2018-05-25T22:14:41.197Z,21.10
2018-05-25T22:17:07.374Z,21.10
2018-05-25T22:19:33.546Z,21.10
2018-05-25T22:21:59.761Z,20.80
2018-05-25T22:24:25.996Z,20.90
2018-05-25T22:26:52.311Z,20.90
2018-05-25T22:29:18.580Z,21.00
2018-05-25T22:31:44.764Z,20.90
2018-05-25T22:34:11.042Z,20.90
2018-05-25T22:36:37.231Z,20.90
2018-05-25T22:39:03.472Z,20.80
2018-05-25T22:41:29.684Z,20.70
2018-05-25T22:44:09.033Z,20.70
2018-05-25T22:46:47.535Z,20.70
2018-05-25T22:49:26.241Z,20.80
2018-05-25T22:52:04.803Z,20.80
2018-05-25T22:54:37.077Z,20.70
2018-05-25T22:57:03.298Z,20.70
2018-05-25T22:59:29.541Z,20.60
2018-05-25T23:01:55.822Z,20.50
2018-05-25T23:04:22.764Z,20.50
2018-05-25T23:06:50.840Z,20.50
2018-05-25T23:09:17.829Z,20.30
2018-05-25T23:11:44.074Z,20.30
2018-05-25T23:14:10.264Z,20.30
2018-05-25T23:16:36.522Z,20.40
2018-05-25T23:19:02.829Z,20.30
2018-05-25T23:21:29.049Z,20.10
2018-05-25T23:23:55.290Z,20.00
2018-05-25T23:26:21.514Z,20.00
2018-05-25T23:28:47.752Z,20.10
2018-05-25T23:31:13.972Z,19.90
2018-05-25T23:33:40.175Z,19.80
2018-05-25T23:36:07.159Z,19.30
2018-05-25T23:38:33.389Z,19.20
2018-05-25T23:40:59.616Z,19.40
2018-05-25T23:43:25.833Z,19.50
2018-05-25T23:45:52.021Z,19.60
2018-05-25T23:48:19.065Z,19.70
2018-05-25T23:50:46.101Z,19.60
2018-05-25T23:53:20.046Z,19.60
2018-05-25T23:55:46.354Z,19.70
2018-05-25T23:58:13.309Z,19.80
